sensor_id;sensor_type;location;lat;lon;timestamp;pressure;altitude;pressure_sealevel;temperature
64960;BMP180;51487;52.266;10.542;2024-01-06T00:01:38;99325.00;;;4.80
64960;BMP180;51487;52.266;10.542;2024-01-06T00:04:03;99326.00;;;4.90
64960;BMP180;51487;52.266;10.542;2024-01-06T00:06:29;99329.00;;;4.80
64960;BMP180;51487;52.266;10.542;2024-01-06T00:08:54;99326.00;;;4.80
64960;BMP180;51487;52.266;10.542;2024-01-06T00:11:20;99337.00;;;4.80
64960;BMP180;51487;52.266;10.542;2024-01-06T00:13:47;99334.00;;;4.70
64960;BMP180;51487;52.266;10.542;2024-01-06T00:16:12;99323.00;;;4.50
64960;BMP180;51487;52.266;10.542;2024-01-06T00:18:39;99325.00;;;4.50
64960;BMP180;51487;52.266;10.542;2024-01-06T00:21:04;99326.00;;;4.50
64960;BMP180;51487;52.266;10.542;2024-01-06T00:23:30;99334.00;;;4.40
64960;BMP180;51487;52.266;10.542;2024-01-06T00:25:56;99347.00;;;4.40
64960;BMP180;51487;52.266;10.542;2024-01-06T00:28:21;99341.00;;;4.20
64960;BMP180;51487;52.266;10.542;2024-01-06T00:30:47;99339.00;;;4.10
64960;BMP180;51487;52.266;10.542;2024-01-06T00:33:12;99338.00;;;4.10
64960;BMP180;51487;52.266;10.542;2024-01-06T00:35:38;99338.00;;;4.30
64960;BMP180;51487;52.266;10.542;2024-01-06T00:38:03;99343.00;;;4.20
64960;BMP180;51487;52.266;10.542;2024-01-06T00:40:29;99344.00;;;4.10
64960;BMP180;51487;52.266;10.542;2024-01-06T00:42:54;99339.00;;;4.10
64960;BMP180;51487;52.266;10.542;2024-01-06T00:45:20;99330.00;;;4.10
64960;BMP180;51487;52.266;10.542;2024-01-06T00:47:46;99349.00;;;4.10
64960;BMP180;51487;52.266;10.542;2024-01-06T00:50:11;99347.00;;;4.20
64960;BMP180;51487;52.266;10.542;2024-01-06T00:52:38;99351.00;;;4.00
64960;BMP180;51487;52.266;10.542;2024-01-06T00:55:03;99355.00;;;4.10
64960;BMP180;51487;52.266;10.542;2024-01-06T00:57:29;99360.00;;;4.10
64960;BMP180;51487;52.266;10.542;2024-01-06T00:59:54;99357.00;;;4.00
64960;BMP180;51487;52.266;10.542;2024-01-06T01:02:21;99360.00;;;4.00
64960;BMP180;51487;52.266;10.542;2024-01-06T01:04:47;99362.00;;;4.00
64960;BMP180;51487;52.266;10.542;2024-01-06T01:07:12;99366.00;;;4.00
64960;BMP180;51487;52.266;10.542;2024-01-06T01:09:38;99375.00;;;3.90
64960;BMP180;51487;52.266;10.542;2024-01-06T01:12:03;99370.00;;;3.80
64960;BMP180;51487;52.266;10.542;2024-01-06T01:14:29;99375.00;;;3.90
64960;BMP180;51487;52.266;10.542;2024-01-06T01:16:55;99382.00;;;3.70
64960;BMP180;51487;52.266;10.542;2024-01-06T01:19:20;99372.00;;;3.80
64960;BMP180;51487;52.266;10.542;2024-01-06T01:21:46;99380.00;;;3.80
64960;BMP180;51487;52.266;10.542;2024-01-06T01:24:11;99388.00;;;3.80
64960;BMP180;51487;52.266;10.542;2024-01-06T01:26:37;99389.00;;;3.70
64960;BMP180;51487;52.266;10.542;2024-01-06T01:29:02;99393.00;;;3.70
64960;BMP180;51487;52.266;10.542;2024-01-06T01:31:27;99385.00;;;3.70
64960;BMP180;51487;52.266;10.542;2024-01-06T01:33:53;99397.00;;;3.70
64960;BMP180;51487;52.266;10.542;2024-01-06T01:36:18;99403.00;;;3.70
64960;BMP180;51487;52.266;10.542;2024-01-06T01:38:44;99404.00;;;3.70
64960;BMP180;51487;52.266;10.542;2024-01-06T01:41:09;99396.00;;;3.70
64960;BMP180;51487;52.266;10.542;2024-01-06T01:43:35;99408.00;;;3.70
64960;BMP180;51487;52.266;10.542;2024-01-06T01:46:00;99405.00;;;3.60
64960;BMP180;51487;52.266;10.542;2024-01-06T01:48:26;99407.00;;;3.70
64960;BMP180;51487;52.266;10.542;2024-01-06T01:50:53;99409.00;;;3.70
64960;BMP180;51487;52.266;10.542;2024-01-06T01:53:19;99412.00;;;3.60
64960;BMP180;51487;52.266;10.542;2024-01-06T01:55:46;99409.00;;;3.60
64960;BMP180;51487;52.266;10.542;2024-01-06T01:58:13;99408.00;;;3.50
64960;BMP180;51487;52.266;10.542;2024-01-06T02:00:39;99409.00;;;3.60
64960;BMP180;51487;52.266;10.542;2024-01-06T02:03:05;99403.00;;;3.60
64960;BMP180;51487;52.266;10.542;2024-01-06T02:05:31;99413.00;;;3.60
64960;BMP180;51487;52.266;10.542;2024-01-06T02:07:56;99409.00;;;3.60
64960;BMP180;51487;52.266;10.542;2024-01-06T02:10:22;99415.00;;;3.60
64960;BMP180;51487;52.266;10.542;2024-01-06T02:12:48;99414.00;;;3.50
64960;BMP180;51487;52.266;10.542;2024-01-06T02:15:14;99412.00;;;3.60
64960;BMP180;51487;52.266;10.542;2024-01-06T02:17:40;99417.00;;;3.60
64960;BMP180;51487;52.266;10.542;2024-01-06T02:20:07;99421.00;;;3.50
64960;BMP180;51487;52.266;10.542;2024-01-06T02:22:35;99419.00;;;3.50
64960;BMP180;51487;52.266;10.542;2024-01-06T02:25:03;99423.00;;;3.50
64960;BMP180;51487;52.266;10.542;2024-01-06T02:27:37;99425.00;;;3.50
64960;BMP180;51487;52.266;10.542;2024-01-06T02:30:06;99429.00;;;3.60
64960;BMP180;51487;52.266;10.542;2024-01-06T02:32:32;99425.00;;;3.50
64960;BMP180;51487;52.266;10.542;2024-01-06T02:34:58;99427.00;;;3.50
64960;BMP180;51487;52.266;10.542;2024-01-06T02:37:23;99428.00;;;3.50
64960;BMP180;51487;52.266;10.542;2024-01-06T02:39:48;99438.00;;;3.50
64960;BMP180;51487;52.266;10.542;2024-01-06T02:42:14;99441.00;;;3.50
64960;BMP180;51487;52.266;10.542;2024-01-06T02:44:40;99443.00;;;3.60
64960;BMP180;51487;52.266;10.542;2024-01-06T02:47:05;99434.00;;;3.50
64960;BMP180;51487;52.266;10.542;2024-01-06T02:49:31;99441.00;;;3.70
64960;BMP180;51487;52.266;10.542;2024-01-06T02:51:56;99436.00;;;3.60
64960;BMP180;51487;52.266;10.542;2024-01-06T02:54:22;99443.00;;;3.60
64960;BMP180;51487;52.266;10.542;2024-01-06T02:56:47;99445.00;;;3.70
64960;BMP180;51487;52.266;10.542;2024-01-06T02:59:12;99459.00;;;3.60
64960;BMP180;51487;52.266;10.542;2024-01-06T03:01:38;99441.00;;;3.40
64960;BMP180;51487;52.266;10.542;2024-01-06T03:04:03;99448.00;;;3.40
64960;BMP180;51487;52.266;10.542;2024-01-06T03:06:29;99452.00;;;3.40
64960;BMP180;51487;52.266;10.542;2024-01-06T03:08:54;99450.00;;;3.40
64960;BMP180;51487;52.266;10.542;2024-01-06T03:11:20;99453.00;;;3.40
64960;BMP180;51487;52.266;10.542;2024-01-06T03:13:45;99462.00;;;3.50
64960;BMP180;51487;52.266;10.542;2024-01-06T03:16:11;99468.00;;;3.50
64960;BMP180;51487;52.266;10.542;2024-01-06T03:18:37;99468.00;;;3.50
64960;BMP180;51487;52.266;10.542;2024-01-06T03:21:19;99469.00;;;3.50
64960;BMP180;51487;52.266;10.542;2024-01-06T03:23:46;99470.00;;;3.40
64960;BMP180;51487;52.266;10.542;2024-01-06T03:26:13;99468.00;;;3.50
64960;BMP180;51487;52.266;10.542;2024-01-06T03:28:38;99464.00;;;3.50
64960;BMP180;51487;52.266;10.542;2024-01-06T03:31:04;99468.00;;;3.40
64960;BMP180;51487;52.266;10.542;2024-01-06T03:33:29;99465.00;;;3.40
64960;BMP180;51487;52.266;10.542;2024-01-06T03:35:55;99463.00;;;3.40
64960;BMP180;51487;52.266;10.542;2024-01-06T03:38:20;99461.00;;;3.40
64960;BMP180;51487;52.266;10.542;2024-01-06T03:40:45;99467.00;;;3.30
64960;BMP180;51487;52.266;10.542;2024-01-06T03:43:11;99480.00;;;3.40
64960;BMP180;51487;52.266;10.542;2024-01-06T03:45:36;99477.00;;;3.40
64960;BMP180;51487;52.266;10.542;2024-01-06T03:48:02;99477.00;;;3.50
64960;BMP180;51487;52.266;10.542;2024-01-06T03:50:28;99480.00;;;3.50
64960;BMP180;51487;52.266;10.542;2024-01-06T03:52:53;99477.00;;;3.60
64960;BMP180;51487;52.266;10.542;2024-01-06T03:55:18;99481.00;;;3.60
64960;BMP180;51487;52.266;10.542;2024-01-06T03:57:44;99482.00;;;3.50
64960;BMP180;51487;52.266;10.542;2024-01-06T04:00:10;99481.00;;;3.50
64960;BMP180;51487;52.266;10.542;2024-01-06T04:02:35;99481.00;;;3.70
64960;BMP180;51487;52.266;10.542;2024-01-06T04:05:01;99477.00;;;3.60
64960;BMP180;51487;52.266;10.542;2024-01-06T04:07:26;99482.00;;;3.60
64960;BMP180;51487;52.266;10.542;2024-01-06T04:09:52;99487.00;;;3.50
64960;BMP180;51487;52.266;10.542;2024-01-06T04:12:17;99493.00;;;3.60
64960;BMP180;51487;52.266;10.542;2024-01-06T04:14:43;99500.00;;;3.50
64960;BMP180;51487;52.266;10.542;2024-01-06T04:17:08;99502.00;;;3.60
64960;BMP180;51487;52.266;10.542;2024-01-06T04:19:34;99493.00;;;3.70
64960;BMP180;51487;52.266;10.542;2024-01-06T04:22:00;99499.00;;;3.70
64960;BMP180;51487;52.266;10.542;2024-01-06T04:24:25;99503.00;;;3.50
64960;BMP180;51487;52.266;10.542;2024-01-06T04:26:51;99507.00;;;3.50
64960;BMP180;51487;52.266;10.542;2024-01-06T04:29:16;99510.00;;;3.50
64960;BMP180;51487;52.266;10.542;2024-01-06T04:31:42;99512.00;;;3.60
64960;BMP180;51487;52.266;10.542;2024-01-06T04:34:07;99511.00;;;3.60
64960;BMP180;51487;52.266;10.542;2024-01-06T04:36:33;99514.00;;;3.60
64960;BMP180;51487;52.266;10.542;2024-01-06T04:38:58;99521.00;;;3.60
64960;BMP180;51487;52.266;10.542;2024-01-06T04:41:24;99518.00;;;3.60
64960;BMP180;51487;52.266;10.542;2024-01-06T04:43:49;99535.00;;;3.60
64960;BMP180;51487;52.266;10.542;2024-01-06T04:46:15;99532.00;;;3.50
64960;BMP180;51487;52.266;10.542;2024-01-06T04:48:41;99530.00;;;3.60
64960;BMP180;51487;52.266;10.542;2024-01-06T04:51:06;99528.00;;;3.50
64960;BMP180;51487;52.266;10.542;2024-01-06T04:53:35;99529.00;;;3.60
64960;BMP180;51487;52.266;10.542;2024-01-06T04:56:01;99540.00;;;3.60
64960;BMP180;51487;52.266;10.542;2024-01-06T04:58:27;99542.00;;;3.60
64960;BMP180;51487;52.266;10.542;2024-01-06T05:00:52;99536.00;;;3.60
64960;BMP180;51487;52.266;10.542;2024-01-06T05:03:18;99545.00;;;3.60
64960;BMP180;51487;52.266;10.542;2024-01-06T05:05:43;99552.00;;;3.50
64960;BMP180;51487;52.266;10.542;2024-01-06T05:08:09;99551.00;;;3.70
64960;BMP180;51487;52.266;10.542;2024-01-06T05:10:35;99561.00;;;3.50
64960;BMP180;51487;52.266;10.542;2024-01-06T05:13:00;99554.00;;;3.50
64960;BMP180;51487;52.266;10.542;2024-01-06T05:15:26;99563.00;;;3.50
64960;BMP180;51487;52.266;10.542;2024-01-06T05:17:51;99557.00;;;3.60
64960;BMP180;51487;52.266;10.542;2024-01-06T05:20:17;99556.00;;;3.60
64960;BMP180;51487;52.266;10.542;2024-01-06T05:22:42;99552.00;;;3.70
64960;BMP180;51487;52.266;10.542;2024-01-06T05:25:08;99563.00;;;3.60
64960;BMP180;51487;52.266;10.542;2024-01-06T05:27:34;99567.00;;;3.70
64960;BMP180;51487;52.266;10.542;2024-01-06T05:30:00;99565.00;;;3.60
64960;BMP180;51487;52.266;10.542;2024-01-06T05:32:26;99570.00;;;3.70
64960;BMP180;51487;52.266;10.542;2024-01-06T05:34:52;99567.00;;;3.70
64960;BMP180;51487;52.266;10.542;2024-01-06T05:37:17;99576.00;;;3.60
64960;BMP180;51487;52.266;10.542;2024-01-06T05:39:43;99580.00;;;3.70
64960;BMP180;51487;52.266;10.542;2024-01-06T05:42:09;99588.00;;;3.70
64960;BMP180;51487;52.266;10.542;2024-01-06T05:44:38;99581.00;;;3.50
64960;BMP180;51487;52.266;10.542;2024-01-06T05:47:04;99592.00;;;3.70
64960;BMP180;51487;52.266;10.542;2024-01-06T05:49:30;99589.00;;;3.70
64960;BMP180;51487;52.266;10.542;2024-01-06T05:51:55;99592.00;;;3.50
64960;BMP180;51487;52.266;10.542;2024-01-06T05:54:21;99603.00;;;3.60
64960;BMP180;51487;52.266;10.542;2024-01-06T05:56:46;99610.00;;;3.70
64960;BMP180;51487;52.266;10.542;2024-01-06T05:59:12;99609.00;;;3.60
64960;BMP180;51487;52.266;10.542;2024-01-06T06:01:37;99606.00;;;3.70
64960;BMP180;51487;52.266;10.542;2024-01-06T06:04:03;99609.00;;;3.60
64960;BMP180;51487;52.266;10.542;2024-01-06T06:06:28;99611.00;;;3.70
64960;BMP180;51487;52.266;10.542;2024-01-06T06:08:55;99616.00;;;3.70
64960;BMP180;51487;52.266;10.542;2024-01-06T06:11:21;99621.00;;;3.60
64960;BMP180;51487;52.266;10.542;2024-01-06T06:13:46;99622.00;;;3.70
64960;BMP180;51487;52.266;10.542;2024-01-06T06:16:12;99626.00;;;3.60
64960;BMP180;51487;52.266;10.542;2024-01-06T06:18:38;99629.00;;;3.50
64960;BMP180;51487;52.266;10.542;2024-01-06T06:21:04;99636.00;;;3.50
64960;BMP180;51487;52.266;10.542;2024-01-06T06:23:31;99635.00;;;3.50
64960;BMP180;51487;52.266;10.542;2024-01-06T06:25:56;99644.00;;;3.60
64960;BMP180;51487;52.266;10.542;2024-01-06T06:28:22;99643.00;;;3.60
64960;BMP180;51487;52.266;10.542;2024-01-06T06:30:47;99647.00;;;3.50
64960;BMP180;51487;52.266;10.542;2024-01-06T06:33:13;99660.00;;;3.70
64960;BMP180;51487;52.266;10.542;2024-01-06T06:35:38;99656.00;;;3.60
64960;BMP180;51487;52.266;10.542;2024-01-06T06:38:04;99664.00;;;3.60
64960;BMP180;51487;52.266;10.542;2024-01-06T06:40:29;99672.00;;;3.60
64960;BMP180;51487;52.266;10.542;2024-01-06T06:42:55;99673.00;;;3.50
64960;BMP180;51487;52.266;10.542;2024-01-06T06:45:20;99674.00;;;3.50
64960;BMP180;51487;52.266;10.542;2024-01-06T06:47:48;99674.00;;;3.50
64960;BMP180;51487;52.266;10.542;2024-01-06T06:50:16;99683.00;;;3.50
64960;BMP180;51487;52.266;10.542;2024-01-06T06:52:46;99691.00;;;3.50
64960;BMP180;51487;52.266;10.542;2024-01-06T06:55:11;99688.00;;;3.40
64960;BMP180;51487;52.266;10.542;2024-01-06T06:57:38;99693.00;;;3.50
64960;BMP180;51487;52.266;10.542;2024-01-06T07:00:04;99687.00;;;3.50
64960;BMP180;51487;52.266;10.542;2024-01-06T07:02:32;99694.00;;;3.50
64960;BMP180;51487;52.266;10.542;2024-01-06T07:04:58;99701.00;;;3.60
64960;BMP180;51487;52.266;10.542;2024-01-06T07:07:24;99707.00;;;3.50
64960;BMP180;51487;52.266;10.542;2024-01-06T07:09:49;99712.00;;;3.40
64960;BMP180;51487;52.266;10.542;2024-01-06T07:12:14;99709.00;;;3.30
64960;BMP180;51487;52.266;10.542;2024-01-06T07:14:40;99716.00;;;3.50
64960;BMP180;51487;52.266;10.542;2024-01-06T07:17:05;99712.00;;;3.50
64960;BMP180;51487;52.266;10.542;2024-01-06T07:19:32;99714.00;;;3.60
64960;BMP180;51487;52.266;10.542;2024-01-06T07:21:57;99720.00;;;3.60
64960;BMP180;51487;52.266;10.542;2024-01-06T07:24:23;99731.00;;;3.50
64960;BMP180;51487;52.266;10.542;2024-01-06T07:26:48;99740.00;;;3.50
64960;BMP180;51487;52.266;10.542;2024-01-06T07:29:14;99744.00;;;3.60
64960;BMP180;51487;52.266;10.542;2024-01-06T07:31:39;99744.00;;;3.50
64960;BMP180;51487;52.266;10.542;2024-01-06T07:34:04;99739.00;;;3.30
64960;BMP180;51487;52.266;10.542;2024-01-06T07:36:31;99746.00;;;3.30
64960;BMP180;51487;52.266;10.542;2024-01-06T07:38:57;99757.00;;;3.40
64960;BMP180;51487;52.266;10.542;2024-01-06T07:41:22;99756.00;;;3.40
64960;BMP180;51487;52.266;10.542;2024-01-06T07:43:48;99753.00;;;3.40
64960;BMP180;51487;52.266;10.542;2024-01-06T07:46:14;99759.00;;;3.50
64960;BMP180;51487;52.266;10.542;2024-01-06T07:48:39;99761.00;;;3.50
64960;BMP180;51487;52.266;10.542;2024-01-06T07:51:04;99762.00;;;3.30
64960;BMP180;51487;52.266;10.542;2024-01-06T07:53:30;99763.00;;;3.40
64960;BMP180;51487;52.266;10.542;2024-01-06T07:55:56;99776.00;;;3.40
64960;BMP180;51487;52.266;10.542;2024-01-06T07:58:21;99779.00;;;3.50
64960;BMP180;51487;52.266;10.542;2024-01-06T08:00:47;99778.00;;;3.20
64960;BMP180;51487;52.266;10.542;2024-01-06T08:03:13;99779.00;;;3.40
64960;BMP180;51487;52.266;10.542;2024-01-06T08:05:38;99778.00;;;3.40
64960;BMP180;51487;52.266;10.542;2024-01-06T08:08:05;99790.00;;;3.30
64960;BMP180;51487;52.266;10.542;2024-01-06T08:10:30;99796.00;;;3.30
64960;BMP180;51487;52.266;10.542;2024-01-06T08:12:56;99800.00;;;3.20
64960;BMP180;51487;52.266;10.542;2024-01-06T08:15:22;99796.00;;;3.00
64960;BMP180;51487;52.266;10.542;2024-01-06T08:17:48;99803.00;;;3.20
64960;BMP180;51487;52.266;10.542;2024-01-06T08:20:13;99824.00;;;3.00
64960;BMP180;51487;52.266;10.542;2024-01-06T08:22:39;99819.00;;;3.00
64960;BMP180;51487;52.266;10.542;2024-01-06T08:25:05;99826.00;;;3.00
64960;BMP180;51487;52.266;10.542;2024-01-06T08:27:34;99830.00;;;3.20
64960;BMP180;51487;52.266;10.542;2024-01-06T08:30:00;99833.00;;;3.10
64960;BMP180;51487;52.266;10.542;2024-01-06T08:32:26;99833.00;;;3.10
64960;BMP180;51487;52.266;10.542;2024-01-06T08:34:51;99846.00;;;3.20
64960;BMP180;51487;52.266;10.542;2024-01-06T08:37:17;99847.00;;;3.30
64960;BMP180;51487;52.266;10.542;2024-01-06T08:39:42;99856.00;;;3.30
64960;BMP180;51487;52.266;10.542;2024-01-06T08:42:08;99852.00;;;3.40
64960;BMP180;51487;52.266;10.542;2024-01-06T08:44:33;99860.00;;;3.20
64960;BMP180;51487;52.266;10.542;2024-01-06T08:46:59;99862.00;;;3.30
64960;BMP180;51487;52.266;10.542;2024-01-06T08:49:24;99868.00;;;3.40
64960;BMP180;51487;52.266;10.542;2024-01-06T08:51:50;99857.00;;;3.30
64960;BMP180;51487;52.266;10.542;2024-01-06T08:54:15;99867.00;;;3.50
64960;BMP180;51487;52.266;10.542;2024-01-06T08:56:41;99867.00;;;3.30
64960;BMP180;51487;52.266;10.542;2024-01-06T08:59:06;99864.00;;;3.40
64960;BMP180;51487;52.266;10.542;2024-01-06T09:01:32;99876.00;;;3.30
64960;BMP180;51487;52.266;10.542;2024-01-06T09:03:59;99872.00;;;3.30
64960;BMP180;51487;52.266;10.542;2024-01-06T09:06:24;99879.00;;;3.20
64960;BMP180;51487;52.266;10.542;2024-01-06T09:08:50;99892.00;;;3.20
64960;BMP180;51487;52.266;10.542;2024-01-06T09:11:15;99893.00;;;3.20
64960;BMP180;51487;52.266;10.542;2024-01-06T09:13:41;99893.00;;;3.20
64960;BMP180;51487;52.266;10.542;2024-01-06T09:16:06;99898.00;;;3.20
64960;BMP180;51487;52.266;10.542;2024-01-06T09:18:32;99907.00;;;3.30
64960;BMP180;51487;52.266;10.542;2024-01-06T09:20:57;99902.00;;;3.10
64960;BMP180;51487;52.266;10.542;2024-01-06T09:23:23;99906.00;;;3.10
64960;BMP180;51487;52.266;10.542;2024-01-06T09:25:48;99914.00;;;3.20
64960;BMP180;51487;52.266;10.542;2024-01-06T09:28:15;99918.00;;;3.20
64960;BMP180;51487;52.266;10.542;2024-01-06T09:30:41;99920.00;;;3.20
64960;BMP180;51487;52.266;10.542;2024-01-06T09:33:06;99941.00;;;3.20
64960;BMP180;51487;52.266;10.542;2024-01-06T09:35:33;99932.00;;;3.30
64960;BMP180;51487;52.266;10.542;2024-01-06T09:38:00;99937.00;;;3.20
64960;BMP180;51487;52.266;10.542;2024-01-06T09:40:25;99939.00;;;3.10
64960;BMP180;51487;52.266;10.542;2024-01-06T09:42:51;99942.00;;;3.00
64960;BMP180;51487;52.266;10.542;2024-01-06T09:45:19;99948.00;;;3.10
64960;BMP180;51487;52.266;10.542;2024-01-06T09:47:49;99944.00;;;3.10
64960;BMP180;51487;52.266;10.542;2024-01-06T09:50:20;99953.00;;;3.20
64960;BMP180;51487;52.266;10.542;2024-01-06T09:52:47;99952.00;;;3.10
64960;BMP180;51487;52.266;10.542;2024-01-06T09:55:24;99945.00;;;3.20
64960;BMP180;51487;52.266;10.542;2024-01-06T09:57:54;99959.00;;;3.30
64960;BMP180;51487;52.266;10.542;2024-01-06T10:00:20;99949.00;;;3.40
64960;BMP180;51487;52.266;10.542;2024-01-06T10:02:49;99954.00;;;3.40
64960;BMP180;51487;52.266;10.542;2024-01-06T10:05:16;99965.00;;;3.30
64960;BMP180;51487;52.266;10.542;2024-01-06T10:07:45;99967.00;;;3.30
64960;BMP180;51487;52.266;10.542;2024-01-06T10:10:12;99953.00;;;3.10
64960;BMP180;51487;52.266;10.542;2024-01-06T10:12:38;99953.00;;;3.20
64960;BMP180;51487;52.266;10.542;2024-01-06T10:15:06;99959.00;;;3.20
64960;BMP180;51487;52.266;10.542;2024-01-06T10:17:35;99961.00;;;3.10
64960;BMP180;51487;52.266;10.542;2024-01-06T10:20:02;99968.00;;;3.10
64960;BMP180;51487;52.266;10.542;2024-01-06T10:22:32;99968.00;;;3.20
64960;BMP180;51487;52.266;10.542;2024-01-06T10:24:57;99964.00;;;3.10
64960;BMP180;51487;52.266;10.542;2024-01-06T10:27:25;99968.00;;;3.10
64960;BMP180;51487;52.266;10.542;2024-01-06T10:29:50;99971.00;;;3.20
64960;BMP180;51487;52.266;10.542;2024-01-06T10:32:16;99975.00;;;3.10
64960;BMP180;51487;52.266;10.542;2024-01-06T10:34:42;99977.00;;;3.20
64960;BMP180;51487;52.266;10.542;2024-01-06T10:37:08;99997.00;;;3.20
64960;BMP180;51487;52.266;10.542;2024-01-06T10:39:34;99983.00;;;3.00
64960;BMP180;51487;52.266;10.542;2024-01-06T10:42:01;99995.00;;;3.10
64960;BMP180;51487;52.266;10.542;2024-01-06T10:44:31;99995.00;;;3.00
64960;BMP180;51487;52.266;10.542;2024-01-06T10:46:57;99998.00;;;3.00
64960;BMP180;51487;52.266;10.542;2024-01-06T10:49:24;99990.00;;;3.00
64960;BMP180;51487;52.266;10.542;2024-01-06T10:51:53;99996.00;;;2.80
64960;BMP180;51487;52.266;10.542;2024-01-06T10:54:20;100005.00;;;2.80
64960;BMP180;51487;52.266;10.542;2024-01-06T10:56:47;100000.00;;;2.80
64960;BMP180;51487;52.266;10.542;2024-01-06T10:59:15;99993.00;;;2.80
64960;BMP180;51487;52.266;10.542;2024-01-06T11:01:41;100003.00;;;2.90
64960;BMP180;51487;52.266;10.542;2024-01-06T11:04:08;100005.00;;;2.80
64960;BMP180;51487;52.266;10.542;2024-01-06T11:06:35;99997.00;;;2.60
64960;BMP180;51487;52.266;10.542;2024-01-06T11:09:15;99993.00;;;2.70
64960;BMP180;51487;52.266;10.542;2024-01-06T11:11:45;100003.00;;;2.80
64960;BMP180;51487;52.266;10.542;2024-01-06T11:14:18;100004.00;;;2.60
64960;BMP180;51487;52.266;10.542;2024-01-06T11:16:45;99998.00;;;2.70
64960;BMP180;51487;52.266;10.542;2024-01-06T11:22:26;100004.00;;;2.60
64960;BMP180;51487;52.266;10.542;2024-01-06T11:25:08;99998.00;;;2.80
64960;BMP180;51487;52.266;10.542;2024-01-06T11:27:38;99998.00;;;2.60
64960;BMP180;51487;52.266;10.542;2024-01-06T11:30:07;99997.00;;;2.80
64960;BMP180;51487;52.266;10.542;2024-01-06T11:32:33;100003.00;;;2.80
64960;BMP180;51487;52.266;10.542;2024-01-06T11:35:12;100000.00;;;2.70
64960;BMP180;51487;52.266;10.542;2024-01-06T11:40:23;99999.00;;;2.70
64960;BMP180;51487;52.266;10.542;2024-01-06T11:45:31;100005.00;;;2.70
64960;BMP180;51487;52.266;10.542;2024-01-06T11:47:59;100002.00;;;2.60
64960;BMP180;51487;52.266;10.542;2024-01-06T11:50:28;100011.00;;;2.60
64960;BMP180;51487;52.266;10.542;2024-01-06T11:52:55;100009.00;;;2.50
64960;BMP180;51487;52.266;10.542;2024-01-06T11:55:21;100006.00;;;2.60
64960;BMP180;51487;52.266;10.542;2024-01-06T11:57:47;100009.00;;;2.60
64960;BMP180;51487;52.266;10.542;2024-01-06T12:00:15;100017.00;;;2.60
64960;BMP180;51487;52.266;10.542;2024-01-06T12:02:41;100021.00;;;2.60
64960;BMP180;51487;52.266;10.542;2024-01-06T12:05:13;100013.00;;;2.50
64960;BMP180;51487;52.266;10.542;2024-01-06T12:07:41;100023.00;;;2.50
64960;BMP180;51487;52.266;10.542;2024-01-06T12:10:10;100014.00;;;2.60
64960;BMP180;51487;52.266;10.542;2024-01-06T12:12:37;100017.00;;;2.60
64960;BMP180;51487;52.266;10.542;2024-01-06T12:15:03;100020.00;;;2.60
64960;BMP180;51487;52.266;10.542;2024-01-06T12:17:30;100017.00;;;2.50
64960;BMP180;51487;52.266;10.542;2024-01-06T12:19:56;100019.00;;;2.50
64960;BMP180;51487;52.266;10.542;2024-01-06T12:22:22;100027.00;;;2.40
64960;BMP180;51487;52.266;10.542;2024-01-06T12:24:50;100028.00;;;2.40
64960;BMP180;51487;52.266;10.542;2024-01-06T12:27:16;100026.00;;;2.10
64960;BMP180;51487;52.266;10.542;2024-01-06T12:29:43;100030.00;;;2.10
64960;BMP180;51487;52.266;10.542;2024-01-06T12:32:10;100050.00;;;2.20
64960;BMP180;51487;52.266;10.542;2024-01-06T12:34:38;100034.00;;;2.30
64960;BMP180;51487;52.266;10.542;2024-01-06T12:37:05;100043.00;;;2.30
64960;BMP180;51487;52.266;10.542;2024-01-06T12:39:33;100039.00;;;2.40
64960;BMP180;51487;52.266;10.542;2024-01-06T12:41:58;100032.00;;;2.20
64960;BMP180;51487;52.266;10.542;2024-01-06T12:44:27;100039.00;;;2.20
64960;BMP180;51487;52.266;10.542;2024-01-06T12:46:53;100049.00;;;2.20
64960;BMP180;51487;52.266;10.542;2024-01-06T12:49:19;100049.00;;;2.30
64960;BMP180;51487;52.266;10.542;2024-01-06T12:51:44;100040.00;;;2.30
64960;BMP180;51487;52.266;10.542;2024-01-06T12:54:09;100047.00;;;2.30
64960;BMP180;51487;52.266;10.542;2024-01-06T12:56:35;100039.00;;;2.30
64960;BMP180;51487;52.266;10.542;2024-01-06T12:59:01;100037.00;;;2.30
64960;BMP180;51487;52.266;10.542;2024-01-06T13:01:27;100041.00;;;2.40
64960;BMP180;51487;52.266;10.542;2024-01-06T13:03:53;100049.00;;;2.40
64960;BMP180;51487;52.266;10.542;2024-01-06T13:06:19;100050.00;;;2.40
64960;BMP180;51487;52.266;10.542;2024-01-06T13:08:45;100051.00;;;2.20
64960;BMP180;51487;52.266;10.542;2024-01-06T13:11:12;100076.00;;;2.10
64960;BMP180;51487;52.266;10.542;2024-01-06T13:13:38;100073.00;;;2.00
64960;BMP180;51487;52.266;10.542;2024-01-06T13:16:03;100066.00;;;2.10
64960;BMP180;51487;52.266;10.542;2024-01-06T13:18:30;100063.00;;;2.10
64960;BMP180;51487;52.266;10.542;2024-01-06T13:20:55;100070.00;;;2.10
64960;BMP180;51487;52.266;10.542;2024-01-06T13:23:21;100073.00;;;1.90
64960;BMP180;51487;52.266;10.542;2024-01-06T13:25:47;100084.00;;;2.00
64960;BMP180;51487;52.266;10.542;2024-01-06T13:28:12;100079.00;;;2.00
64960;BMP180;51487;52.266;10.542;2024-01-06T13:30:38;100080.00;;;2.10
64960;BMP180;51487;52.266;10.542;2024-01-06T13:33:05;100096.00;;;2.10
64960;BMP180;51487;52.266;10.542;2024-01-06T13:35:30;100092.00;;;2.00
64960;BMP180;51487;52.266;10.542;2024-01-06T13:37:56;100093.00;;;2.00
64960;BMP180;51487;52.266;10.542;2024-01-06T13:40:22;100098.00;;;1.80
64960;BMP180;51487;52.266;10.542;2024-01-06T13:42:49;100099.00;;;1.70
64960;BMP180;51487;52.266;10.542;2024-01-06T13:45:16;100111.00;;;1.80
64960;BMP180;51487;52.266;10.542;2024-01-06T13:47:42;100104.00;;;1.70
64960;BMP180;51487;52.266;10.542;2024-01-06T13:50:11;100114.00;;;1.60
64960;BMP180;51487;52.266;10.542;2024-01-06T13:52:37;100124.00;;;1.60
64960;BMP180;51487;52.266;10.542;2024-01-06T13:55:04;100127.00;;;1.50
64960;BMP180;51487;52.266;10.542;2024-01-06T13:57:30;100128.00;;;1.50
64960;BMP180;51487;52.266;10.542;2024-01-06T13:59:56;100133.00;;;1.60
64960;BMP180;51487;52.266;10.542;2024-01-06T14:02:22;100132.00;;;1.70
64960;BMP180;51487;52.266;10.542;2024-01-06T14:04:49;100131.00;;;1.80
64960;BMP180;51487;52.266;10.542;2024-01-06T14:07:15;100135.00;;;1.70
64960;BMP180;51487;52.266;10.542;2024-01-06T14:09:44;100141.00;;;1.60